createdAt,value
2019-03-15T00:02:09.618Z,5.00
2019-03-15T00:04:42.296Z,5.10
2019-03-15T00:07:13.207Z,5.20
2019-03-15T00:09:45.450Z,5.20
2019-03-15T00:12:16.414Z,5.30
2019-03-15T00:14:47.384Z,5.30
2019-03-15T00:17:19.293Z,5.40
2019-03-15T00:19:50.261Z,5.30
2019-03-15T00:22:21.119Z,5.30
2019-03-15T00:24:51.954Z,5.30
2019-03-15T00:27:22.893Z,5.30
2019-03-15T00:29:53.728Z,5.30
2019-03-15T00:32:24.872Z,5.40
2019-03-15T00:34:55.704Z,5.40
2019-03-15T00:37:26.477Z,5.50
2019-03-15T00:39:57.478Z,5.40
2019-03-15T00:42:29.722Z,5.40
2019-03-15T00:45:00.687Z,5.40
2019-03-15T00:47:31.500Z,5.40
2019-03-15T00:50:02.460Z,5.40
2019-03-15T00:52:34.319Z,5.40
2019-03-15T00:55:06.595Z,5.40
2019-03-15T00:57:37.527Z,5.40
2019-03-15T01:00:11.665Z,5.40
2019-03-15T01:02:44.203Z,5.50
2019-03-15T01:05:16.470Z,5.40
2019-03-15T01:07:47.428Z,5.50
2019-03-15T01:10:19.334Z,5.50
2019-03-15T01:12:50.966Z,5.50
2019-03-15T01:15:21.981Z,5.50
2019-03-15T01:17:52.853Z,5.50
2019-03-15T01:20:25.599Z,5.50
2019-03-15T01:22:56.535Z,5.50
2019-03-15T01:25:27.478Z,5.50
2019-03-15T01:27:58.412Z,5.50
2019-03-15T01:30:30.209Z,5.50
2019-03-15T01:33:01.316Z,5.50
2019-03-15T01:35:33.621Z,5.50
2019-03-15T01:38:04.622Z,5.50
2019-03-15T01:40:35.557Z,5.50
2019-03-15T01:43:06.392Z,5.50
2019-03-15T01:45:38.227Z,5.50
2019-03-15T01:48:09.191Z,5.50
2019-03-15T01:50:40.923Z,5.50
2019-03-15T01:53:11.886Z,5.50
2019-03-15T01:55:42.828Z,5.50
2019-03-15T01:58:14.846Z,5.40
2019-03-15T02:00:45.715Z,5.40
2019-03-15T02:03:16.669Z,5.40
2019-03-15T02:05:47.606Z,5.50
2019-03-15T02:08:18.542Z,5.50
2019-03-15T02:10:49.487Z,5.50
2019-03-15T02:13:21.442Z,5.50
2019-03-15T02:15:52.274Z,5.50
2019-03-15T02:18:23.216Z,5.50
2019-03-15T02:20:54.048Z,5.60
2019-03-15T02:23:26.319Z,5.60
2019-03-15T02:25:58.177Z,5.60
2019-03-15T02:28:30.038Z,5.50
2019-03-15T02:31:00.948Z,5.60
2019-03-15T02:33:33.436Z,5.60
2019-03-15T02:36:04.295Z,5.60
2019-03-15T02:38:35.236Z,5.60
2019-03-15T02:41:06.354Z,5.60
2019-03-15T02:43:37.289Z,5.60
2019-03-15T02:46:08.246Z,5.60
2019-03-15T02:48:40.726Z,5.60
2019-03-15T02:51:12.375Z,5.60
2019-03-15T02:53:43.316Z,5.60
2019-03-15T02:56:15.054Z,5.60
2019-03-15T02:58:46.280Z,5.60
2019-03-15T03:01:17.229Z,5.60
2019-03-15T03:03:48.395Z,5.60
2019-03-15T03:06:20.529Z,5.60
2019-03-15T03:08:51.898Z,5.60
2019-03-15T03:11:25.767Z,5.60
2019-03-15T03:13:56.733Z,5.60
2019-03-15T03:16:27.696Z,5.60
2019-03-15T03:19:01.000Z,5.70
2019-03-15T03:21:34.159Z,5.70
2019-03-15T03:24:05.253Z,5.70
2019-03-15T03:26:36.363Z,5.70
2019-03-15T03:29:07.302Z,5.70
2019-03-15T03:31:38.227Z,5.70
2019-03-15T03:34:09.216Z,5.70
2019-03-15T03:36:40.218Z,5.60
2019-03-15T03:39:11.262Z,5.60
2019-03-15T03:41:42.197Z,5.60
2019-03-15T03:44:13.213Z,5.60
2019-03-15T03:46:44.048Z,5.60
2019-03-15T03:49:14.988Z,5.60
2019-03-15T03:51:47.174Z,5.70
2019-03-15T03:54:18.010Z,5.60
2019-03-15T03:56:49.662Z,5.60
2019-03-15T03:59:20.610Z,5.60
2019-03-15T04:01:51.544Z,5.60
2019-03-15T04:04:22.380Z,5.60
2019-03-15T04:06:53.707Z,5.60
2019-03-15T04:09:24.665Z,5.50
2019-03-15T04:11:56.237Z,5.50
2019-03-15T04:14:27.363Z,5.50
2019-03-15T04:16:58.271Z,5.50
2019-03-15T04:19:29.342Z,5.40
2019-03-15T04:22:00.253Z,5.40
2019-03-15T04:24:31.201Z,5.20
2019-03-15T04:27:02.123Z,5.10
2019-03-15T04:29:32.987Z,5.00
2019-03-15T04:32:03.924Z,5.00
2019-03-15T04:34:34.864Z,5.00
2019-03-15T04:37:09.062Z,5.10
2019-03-15T04:39:39.810Z,5.20
2019-03-15T04:42:11.126Z,5.20
2019-03-15T04:44:42.306Z,5.20
2019-03-15T04:47:14.268Z,5.20
2019-03-15T04:49:45.208Z,5.30
2019-03-15T04:52:16.144Z,5.30
2019-03-15T04:54:47.082Z,5.20
2019-03-15T04:57:18.020Z,5.20
2019-03-15T04:59:50.400Z,5.30
2019-03-15T05:02:21.431Z,5.20
2019-03-15T05:04:52.369Z,5.20
2019-03-15T05:07:23.307Z,5.30
2019-03-15T05:09:55.167Z,5.30
2019-03-15T05:12:26.105Z,5.30
2019-03-15T05:14:57.042Z,5.30
2019-03-15T05:17:28.931Z,5.30
2019-03-15T05:19:59.943Z,5.40
2019-03-15T05:22:30.878Z,5.40
2019-03-15T05:25:01.816Z,5.30
2019-03-15T05:27:32.731Z,5.40
2019-03-15T05:30:03.974Z,5.40
2019-03-15T05:32:34.939Z,5.40
2019-03-15T05:35:06.457Z,5.40
2019-03-15T05:37:37.542Z,5.40
2019-03-15T05:40:08.759Z,5.40
2019-03-15T05:42:39.719Z,5.40
2019-03-15T05:45:11.255Z,5.40
2019-03-15T05:47:42.523Z,5.40
2019-03-15T05:50:13.864Z,5.30
2019-03-15T05:52:44.801Z,5.30
2019-03-15T05:55:15.742Z,5.30
2019-03-15T05:57:48.426Z,5.30
2019-03-15T06:00:19.353Z,5.40
2019-03-15T06:02:50.192Z,5.40
2019-03-15T06:05:21.332Z,5.40
2019-03-15T06:07:52.289Z,5.40
2019-03-15T06:10:23.207Z,5.40
2019-03-15T06:12:56.803Z,5.50
2019-03-15T06:15:30.567Z,5.50
2019-03-15T06:18:01.974Z,5.50
2019-03-15T06:20:32.875Z,5.50
2019-03-15T06:23:03.840Z,5.60
2019-03-15T06:25:34.885Z,5.60
2019-03-15T06:28:05.821Z,5.70
2019-03-15T06:30:37.781Z,5.70
2019-03-15T06:33:10.134Z,5.70
2019-03-15T06:35:41.091Z,5.80
2019-03-15T06:38:11.933Z,5.80
2019-03-15T06:40:42.870Z,5.90
2019-03-15T06:43:14.955Z,5.90
2019-03-15T06:45:45.985Z,6.00
2019-03-15T06:48:16.906Z,6.00
2019-03-15T06:50:47.846Z,6.00
2019-03-15T06:53:20.293Z,6.00
2019-03-15T06:55:51.381Z,6.20
2019-03-15T06:58:22.402Z,6.40
2019-03-15T07:00:54.722Z,6.50
2019-03-15T07:03:27.120Z,6.40
2019-03-15T07:05:58.084Z,6.30
2019-03-15T07:08:29.020Z,6.30
2019-03-15T07:10:59.962Z,6.20
2019-03-15T07:13:31.921Z,6.30
2019-03-15T07:16:02.858Z,6.40
2019-03-15T07:18:35.731Z,6.50
2019-03-15T07:21:06.272Z,6.60
2019-03-15T07:23:37.208Z,6.70
2019-03-15T07:26:09.168Z,6.90
2019-03-15T07:28:40.106Z,6.80
2019-03-15T07:31:11.047Z,6.90
2019-03-15T07:33:41.961Z,6.80
2019-03-15T07:36:13.842Z,6.70
2019-03-15T07:38:44.886Z,6.70
2019-03-15T07:41:15.821Z,6.60
2019-03-15T07:43:47.377Z,6.60
2019-03-15T07:46:18.314Z,6.70
2019-03-15T07:48:49.356Z,6.80
2019-03-15T07:51:20.400Z,7.00
2019-03-15T07:53:51.438Z,7.10
2019-03-15T07:56:22.683Z,7.20
2019-03-15T07:58:53.618Z,7.30
2019-03-15T08:01:25.378Z,7.50
2019-03-15T08:03:57.849Z,7.70
2019-03-15T08:06:35.048Z,8.70
2019-03-15T08:09:03.423Z,8.50
2019-03-15T08:11:36.169Z,8.30
2019-03-15T08:14:07.021Z,8.00
2019-03-15T08:16:39.810Z,7.70
2019-03-15T08:19:11.155Z,7.60
2019-03-15T08:21:42.836Z,7.60
2019-03-15T08:24:13.754Z,7.70
2019-03-15T08:26:44.680Z,7.80
2019-03-15T08:29:15.630Z,8.00
2019-03-15T08:31:47.348Z,8.30
2019-03-15T08:34:18.296Z,8.00
2019-03-15T08:36:51.077Z,8.10
2019-03-15T08:39:22.045Z,8.20
2019-03-15T08:41:54.315Z,7.90
2019-03-15T08:44:25.561Z,8.00
2019-03-15T08:46:56.501Z,8.30
2019-03-15T08:49:27.437Z,8.70
2019-03-15T08:52:03.819Z,8.70
2019-03-15T08:57:01.680Z,10.60
2019-03-15T08:59:32.597Z,9.80
2019-03-15T09:02:03.866Z,9.70
2019-03-15T09:04:35.016Z,9.70
2019-03-15T09:07:06.038Z,9.70
2019-03-15T09:09:36.988Z,9.80
2019-03-15T09:12:07.926Z,10.10
2019-03-15T09:14:38.967Z,10.70
2019-03-15T09:17:10.140Z,10.60
2019-03-15T09:19:41.151Z,10.50
2019-03-15T09:22:11.972Z,10.90
2019-03-15T09:24:44.052Z,11.00
2019-03-15T09:27:15.927Z,10.70
2019-03-15T09:29:46.952Z,10.50
2019-03-15T09:32:17.887Z,10.50
2019-03-15T09:34:50.775Z,10.30
2019-03-15T09:37:23.236Z,10.50
2019-03-15T09:39:55.161Z,10.70
2019-03-15T09:42:26.862Z,11.50
2019-03-15T09:44:59.028Z,11.10
2019-03-15T09:47:30.072Z,11.20
2019-03-15T09:50:00.927Z,11.10
2019-03-15T09:52:32.051Z,10.70
2019-03-15T09:55:02.970Z,9.90
2019-03-15T09:57:33.930Z,9.90
2019-03-15T10:00:10.499Z,9.90
2019-03-15T10:02:42.563Z,9.90
2019-03-15T10:05:13.688Z,9.80
2019-03-15T10:07:44.730Z,9.70
2019-03-15T10:10:18.986Z,9.70
2019-03-15T10:13:04.686Z,9.90
2019-03-15T10:15:26.426Z,9.90
2019-03-15T10:17:56.666Z,10.30
2019-03-15T10:20:27.635Z,10.40
2019-03-15T10:23:06.097Z,10.20
2019-03-15T10:25:45.566Z,10.20
2019-03-15T10:28:04.955Z,10.30
2019-03-15T10:30:36.936Z,10.60
2019-03-15T10:33:09.286Z,10.60
2019-03-15T10:35:40.220Z,10.30
2019-03-15T10:38:11.266Z,10.20
2019-03-15T10:40:42.200Z,10.60
2019-03-15T10:43:14.572Z,10.70
2019-03-15T10:45:45.613Z,10.70
2019-03-15T10:48:24.994Z,10.60
2019-03-15T10:50:49.127Z,10.50
2019-03-15T10:53:21.475Z,10.60
2019-03-15T10:56:00.050Z,10.60
2019-03-15T10:58:24.805Z,10.70
2019-03-15T11:00:57.568Z,10.80
2019-03-15T11:03:28.631Z,10.50
2019-03-15T11:05:59.566Z,10.50
2019-03-15T11:08:30.610Z,10.40
2019-03-15T11:11:03.276Z,10.60
2019-03-15T11:13:36.066Z,10.30
2019-03-15T11:16:06.804Z,10.20
2019-03-15T11:18:37.740Z,10.40
2019-03-15T11:21:08.680Z,10.70
2019-03-15T11:23:40.180Z,10.90
2019-03-15T11:26:13.961Z,11.00
2019-03-15T11:28:43.746Z,11.20
2019-03-15T11:31:14.791Z,11.10
2019-03-15T11:33:47.440Z,11.10
2019-03-15T11:36:19.327Z,10.80
2019-03-15T11:38:50.363Z,10.70
2019-03-15T11:41:22.507Z,10.50
2019-03-15T11:43:53.453Z,10.10
2019-03-15T11:46:24.383Z,9.90
2019-03-15T11:48:55.348Z,9.80
2019-03-15T11:51:26.396Z,9.80
2019-03-15T11:53:57.636Z,9.90
2019-03-15T11:56:29.728Z,9.90
2019-03-15T11:59:00.740Z,10.20
2019-03-15T12:01:31.784Z,10.40
2019-03-15T12:04:02.720Z,10.50
2019-03-15T12:06:33.648Z,10.50
2019-03-15T12:09:06.878Z,10.60
2019-03-15T12:11:39.231Z,10.70
2019-03-15T12:14:10.135Z,10.60
2019-03-15T12:16:41.092Z,10.60
2019-03-15T12:19:12.953Z,10.50
2019-03-15T12:21:43.894Z,10.40
2019-03-15T12:24:14.828Z,10.30
2019-03-15T12:26:46.553Z,10.40
2019-03-15T12:29:19.188Z,10.20
2019-03-15T12:31:50.746Z,9.80
2019-03-15T12:34:22.047Z,9.60
2019-03-15T12:36:53.002Z,9.40
2019-03-15T12:39:24.046Z,9.30
2019-03-15T12:41:54.917Z,9.40
2019-03-15T12:44:25.922Z,9.50
2019-03-15T12:46:58.636Z,9.50
2019-03-15T12:49:29.536Z,9.50
2019-03-15T12:52:00.478Z,9.60
2019-03-15T12:54:32.025Z,9.50
2019-03-15T12:57:02.965Z,9.40
2019-03-15T12:59:33.884Z,9.30
2019-03-15T13:02:04.824Z,9.20
2019-03-15T13:04:37.539Z,8.90
2019-03-15T13:07:08.454Z,8.90
2019-03-15T13:09:39.910Z,8.80
2019-03-15T13:12:11.843Z,8.70
2019-03-15T13:14:43.726Z,8.70
2019-03-15T13:17:14.664Z,8.60
2019-03-15T13:19:55.012Z,8.70
2019-03-15T13:22:18.287Z,8.70
2019-03-15T13:24:49.223Z,8.70
2019-03-15T13:27:20.266Z,8.40
2019-03-15T13:29:52.326Z,8.60
2019-03-15T13:32:23.821Z,8.60
2019-03-15T13:34:54.821Z,8.70
2019-03-15T13:37:25.628Z,8.70
2019-03-15T13:39:56.594Z,8.80
2019-03-15T13:42:28.557Z,8.80
2019-03-15T13:44:59.493Z,8.70
2019-03-15T13:47:30.437Z,8.70
2019-03-15T13:50:01.487Z,8.90
2019-03-15T13:52:33.986Z,8.70
2019-03-15T13:55:05.476Z,8.70
2019-03-15T13:57:36.545Z,8.60
2019-03-15T14:00:17.517Z,8.50
2019-03-15T14:02:49.976Z,8.30
2019-03-15T14:05:20.928Z,8.30
2019-03-15T14:07:51.969Z,8.30
2019-03-15T14:10:22.801Z,8.30
2019-03-15T14:12:54.156Z,8.30
2019-03-15T14:15:24.986Z,8.30
2019-03-15T14:17:55.822Z,8.20
2019-03-15T14:20:26.657Z,8.20
2019-03-15T14:22:57.595Z,8.30
2019-03-15T14:25:29.589Z,8.40
2019-03-15T14:28:00.469Z,8.40
2019-03-15T14:30:31.548Z,8.40
2019-03-15T14:33:02.886Z,8.30
2019-03-15T14:35:33.927Z,8.30
2019-03-15T14:38:04.924Z,8.20
2019-03-15T14:40:36.674Z,8.20
2019-03-15T14:43:07.897Z,8.30
2019-03-15T14:45:39.011Z,8.30
2019-03-15T14:48:09.950Z,8.30
2019-03-15T14:50:40.886Z,8.40
2019-03-15T14:53:13.033Z,8.40
2019-03-15T14:55:45.137Z,8.50
2019-03-15T14:58:16.054Z,8.70
2019-03-15T15:00:46.979Z,8.80
2019-03-15T15:03:17.906Z,8.90
2019-03-15T15:05:49.486Z,9.00
2019-03-15T15:08:21.550Z,9.00
2019-03-15T15:10:53.907Z,9.10
2019-03-15T15:13:24.823Z,9.10
2019-03-15T15:15:55.696Z,9.10
2019-03-15T15:18:26.637Z,9.10
2019-03-15T15:20:59.008Z,9.10
2019-03-15T15:23:30.048Z,9.10
2019-03-15T15:26:01.641Z,9.10
2019-03-15T15:28:33.739Z,9.10
2019-03-15T15:31:04.702Z,9.20
2019-03-15T15:33:36.666Z,9.30
2019-03-15T15:36:07.605Z,9.90
2019-03-15T15:38:39.510Z,10.00
2019-03-15T15:41:10.503Z,10.00
2019-03-15T15:43:41.940Z,10.00
2019-03-15T15:46:15.248Z,10.00
2019-03-15T15:48:46.289Z,10.10
2019-03-15T15:51:17.226Z,10.40
2019-03-15T15:53:48.133Z,10.20
2019-03-15T15:56:20.006Z,10.10
2019-03-15T15:58:50.961Z,10.00
2019-03-15T16:01:21.900Z,10.00
2019-03-15T16:03:52.838Z,10.00
2019-03-15T16:06:23.776Z,9.90
2019-03-15T16:08:54.643Z,9.90
2019-03-15T16:11:26.675Z,9.70
2019-03-15T16:13:57.594Z,9.70
2019-03-15T16:16:28.550Z,9.60
2019-03-15T16:18:59.596Z,9.60
2019-03-15T16:21:31.649Z,9.50
2019-03-15T16:24:02.703Z,9.40
2019-03-15T16:26:33.549Z,9.30
2019-03-15T16:29:04.485Z,9.20
2019-03-15T16:31:35.410Z,9.10
2019-03-15T16:34:06.455Z,9.10
2019-03-15T16:36:37.388Z,9.10
2019-03-15T16:39:08.327Z,9.10
2019-03-15T16:41:39.268Z,9.10
2019-03-15T16:44:11.117Z,9.10
2019-03-15T16:46:42.034Z,9.20
2019-03-15T16:49:14.260Z,9.20
2019-03-15T16:51:45.375Z,9.00
2019-03-15T16:54:16.720Z,8.90
2019-03-15T16:56:47.866Z,8.80
2019-03-15T16:59:20.035Z,8.70
2019-03-15T17:01:54.203Z,8.50
2019-03-15T17:04:24.264Z,8.50
2019-03-15T17:06:55.262Z,8.40
2019-03-15T17:09:27.474Z,8.20
2019-03-15T17:11:58.407Z,8.30
2019-03-15T17:14:29.758Z,8.30
2019-03-15T17:17:00.696Z,8.30
2019-03-15T17:19:33.068Z,8.30
2019-03-15T17:22:03.977Z,8.40
2019-03-15T17:24:34.941Z,8.40
2019-03-15T17:27:06.904Z,8.40
2019-03-15T17:29:39.581Z,8.40
2019-03-15T17:32:10.525Z,8.40
2019-03-15T17:34:41.434Z,8.40
2019-03-15T17:37:12.411Z,8.30
2019-03-15T17:39:44.169Z,8.20
2019-03-15T17:42:15.198Z,8.20
2019-03-15T17:44:46.141Z,8.10
2019-03-15T17:47:17.074Z,8.10
2019-03-15T17:49:48.012Z,8.00
2019-03-15T17:52:18.948Z,8.10
2019-03-15T17:54:49.990Z,8.10
2019-03-15T17:57:21.028Z,8.20
2019-03-15T18:00:00.979Z,8.10
2019-03-15T18:02:32.022Z,8.00
2019-03-15T18:05:02.959Z,7.90
2019-03-15T18:07:33.998Z,7.90
2019-03-15T18:10:07.007Z,8.00
2019-03-15T18:12:38.216Z,7.90
2019-03-15T18:15:11.129Z,7.70
2019-03-15T18:17:42.262Z,7.60
2019-03-15T18:20:13.921Z,7.70
2019-03-15T18:22:45.189Z,7.70
2019-03-15T18:25:17.427Z,7.70
2019-03-15T18:27:50.772Z,7.80
2019-03-15T18:30:23.927Z,7.90
2019-03-15T18:32:59.094Z,8.10
2019-03-15T18:35:34.321Z,8.00
2019-03-15T18:38:06.980Z,8.10
2019-03-15T18:40:38.681Z,8.10
2019-03-15T18:43:12.031Z,8.10
2019-03-15T18:45:45.532Z,8.10
2019-03-15T18:48:18.620Z,8.10
2019-03-15T18:50:52.051Z,8.10
2019-03-15T18:53:24.356Z,8.00
2019-03-15T18:55:56.482Z,7.90
2019-03-15T18:58:30.013Z,8.00
2019-03-15T19:01:06.712Z,7.90
2019-03-15T19:03:39.971Z,8.00
2019-03-15T19:06:14.180Z,7.80
2019-03-15T19:08:47.895Z,7.80
2019-03-15T19:11:21.548Z,7.60
2019-03-15T19:13:53.880Z,7.70
2019-03-15T19:16:26.519Z,7.70
2019-03-15T19:18:59.063Z,7.60
2019-03-15T19:21:32.805Z,7.50
2019-03-15T19:24:06.058Z,7.40
2019-03-15T19:26:37.387Z,7.40
2019-03-15T19:29:13.102Z,7.40
2019-03-15T19:31:46.330Z,7.40
2019-03-15T19:34:19.627Z,7.30
2019-03-15T19:36:53.594Z,7.30
2019-03-15T19:39:27.007Z,7.20
2019-03-15T19:42:03.256Z,7.20
2019-03-15T19:44:38.235Z,7.10
2019-03-15T19:47:10.922Z,7.10
2019-03-15T19:49:44.514Z,7.20
2019-03-15T19:52:17.432Z,7.20
2019-03-15T19:55:00.366Z,7.10
2019-03-15T19:57:26.234Z,7.10
2019-03-15T20:00:08.679Z,7.10
2019-03-15T20:02:37.024Z,7.20
2019-03-15T20:05:12.384Z,7.10
2019-03-15T20:07:45.984Z,6.90
2019-03-15T20:10:20.500Z,6.90
2019-03-15T20:12:55.951Z,6.80
2019-03-15T20:15:29.747Z,6.70
2019-03-15T20:18:03.365Z,6.80
2019-03-15T20:20:36.221Z,6.80
2019-03-15T20:23:11.474Z,6.90
2019-03-15T20:25:48.675Z,6.70
2019-03-15T20:28:22.303Z,6.70
2019-03-15T20:30:55.613Z,6.80
2019-03-15T20:33:29.470Z,6.80
2019-03-15T20:36:03.029Z,6.70
2019-03-15T20:38:40.222Z,6.60
2019-03-15T20:41:14.078Z,6.70
2019-03-15T20:43:48.375Z,6.80
2019-03-15T20:46:34.857Z,6.80
2019-03-15T20:48:56.065Z,6.80
2019-03-15T20:51:30.742Z,6.90
2019-03-15T20:54:06.606Z,6.80
2019-03-15T20:56:40.003Z,6.70
2019-03-15T20:59:12.264Z,6.50
2019-03-15T21:01:49.255Z,6.60
2019-03-15T21:04:22.329Z,6.50
2019-03-15T21:06:55.054Z,6.50
2019-03-15T21:09:27.516Z,6.50
2019-03-15T21:12:02.586Z,6.50
2019-03-15T21:14:41.132Z,6.40
2019-03-15T21:17:11.886Z,6.40
2019-03-15T21:19:49.918Z,6.40
2019-03-15T21:22:23.204Z,6.40
2019-03-15T21:24:55.555Z,6.40
2019-03-15T21:27:28.381Z,6.50
2019-03-15T21:30:00.545Z,6.50
2019-03-15T21:32:34.178Z,6.50
2019-03-15T21:35:11.517Z,6.40
2019-03-15T21:37:45.369Z,6.40
2019-03-15T21:40:18.506Z,6.50
2019-03-15T21:42:50.385Z,6.30
2019-03-15T21:45:24.454Z,6.20
2019-03-15T21:47:56.453Z,6.20
2019-03-15T21:50:28.705Z,6.10
2019-03-15T21:53:00.794Z,6.30
2019-03-15T21:55:32.149Z,6.10
2019-03-15T21:58:03.483Z,6.10
2019-03-15T22:00:35.274Z,6.20
2019-03-15T22:03:06.708Z,6.20
2019-03-15T22:05:38.245Z,6.10
2019-03-15T22:08:09.727Z,6.20
2019-03-15T22:10:41.286Z,6.10
2019-03-15T22:13:12.696Z,6.00
2019-03-15T22:15:44.347Z,6.00
2019-03-15T22:18:15.689Z,6.10
2019-03-15T22:20:47.175Z,6.00
2019-03-15T22:23:18.668Z,6.10
2019-03-15T22:25:49.965Z,6.10
2019-03-15T22:28:21.341Z,6.10
2019-03-15T22:30:52.776Z,6.10
2019-03-15T22:33:24.150Z,6.20
2019-03-15T22:35:55.539Z,6.20
2019-03-15T22:38:27.093Z,6.10
2019-03-15T22:40:58.601Z,6.20
2019-03-15T22:43:30.433Z,6.00
2019-03-15T22:46:01.971Z,5.90
2019-03-15T22:48:35.137Z,5.90
2019-03-15T22:51:08.126Z,6.00
2019-03-15T22:53:39.927Z,5.90
2019-03-15T22:56:11.256Z,6.00
2019-03-15T22:58:42.514Z,5.90
2019-03-15T23:01:14.377Z,5.90
2019-03-15T23:03:46.162Z,5.80
2019-03-15T23:06:18.979Z,5.80
2019-03-15T23:08:50.491Z,5.80
2019-03-15T23:11:22.711Z,5.80
2019-03-15T23:13:56.890Z,5.80
2019-03-15T23:16:28.128Z,5.80
2019-03-15T23:18:59.695Z,5.90
2019-03-15T23:21:31.179Z,5.80
2019-03-15T23:24:03.571Z,5.80
2019-03-15T23:26:35.184Z,5.80
2019-03-15T23:29:06.742Z,5.80
2019-03-15T23:31:43.464Z,5.80
2019-03-15T23:34:11.789Z,5.80
2019-03-15T23:36:46.610Z,5.90
2019-03-15T23:39:17.808Z,5.80
2019-03-15T23:41:49.375Z,5.80
2019-03-15T23:44:23.020Z,5.80
2019-03-15T23:46:54.471Z,5.70
2019-03-15T23:49:25.491Z,5.60
2019-03-15T23:51:56.548Z,5.70
2019-03-15T23:54:27.671Z,5.70
2019-03-15T23:56:59.515Z,5.60
2019-03-15T23:59:32.157Z,5.60
